Time;durP1;ratioP1;P1;durP2;ratioP2;P2;SDS_P1;SDS_P2;PMS_P1;PMS_P2;Temp;Humidity;BMP_temperature;BMP_pressure;BME280_temperature;BME280_humidity;BME280_pressure;Samples;Min_cycle;Max_cycle;Signal;HPM_P1;HPM_P2
2022/04/27 00:02:13;;;;;;;6.73;5.97;;;12.00;68.80;;;;;;5095926;28;20464;-65
2022/04/27 00:04:39;;;;;;;6.40;5.80;;;12.00;69.30;;;;;;5096118;28;20455;-65
2022/04/27 00:07:07;;;;;;;9.27;5.90;;;12.00;69.40;;;;;;5096252;28;20466;-65
2022/04/27 00:09:34;;;;;;;8.50;6.00;;;11.90;69.30;;;;;;5096020;28;20519;-66
2022/04/27 00:12:01;;;;;;;7.80;5.43;;;11.90;69.60;;;;;;5096529;28;20496;-65
2022/04/27 00:14:30;;;;;;;8.17;6.40;;;11.90;69.70;;;;;;5096255;28;20477;-65
2022/04/27 00:16:57;;;;;;;7.23;5.80;;;11.90;70.00;;;;;;5095986;28;20447;-66
2022/04/27 00:19:24;;;;;;;7.03;6.03;;;11.80;70.20;;;;;;5096451;28;20460;-65
2022/04/27 00:21:51;;;;;;;6.07;5.23;;;11.80;70.50;;;;;;5097330;28;20464;-66
2022/04/27 00:24:18;;;;;;;8.50;5.80;;;11.80;70.70;;;;;;5097923;28;20463;-65
2022/04/27 00:26:45;;;;;;;8.23;6.97;;;11.80;71.00;;;;;;5097568;28;20475;-65
2022/04/27 00:29:12;;;;;;;10.63;6.23;;;11.70;71.20;;;;;;5096829;28;20447;-65
2022/04/27 00:31:40;;;;;;;6.80;5.60;;;11.70;71.50;;;;;;5094751;28;20490;-65
2022/04/27 00:34:07;;;;;;;6.70;6.00;;;11.70;71.70;;;;;;5095022;28;20448;-65
2022/04/27 00:36:35;;;;;;;6.60;5.93;;;11.60;71.80;;;;;;5094737;28;20455;-65
2022/04/27 00:39:02;;;;;;;7.20;6.30;;;11.60;72.00;;;;;;5094811;28;20455;-65
2022/04/27 00:41:29;;;;;;;6.83;6.03;;;11.60;72.20;;;;;;5094498;28;20464;-65
2022/04/27 00:43:56;;;;;;;7.90;6.30;;;11.60;72.30;;;;;;5093843;28;20950;-65
2022/04/27 00:46:22;;;;;;;6.50;5.90;;;11.60;72.70;;;;;;5094055;28;20466;-65
2022/04/27 00:48:50;;;;;;;7.70;6.03;;;11.60;72.70;;;;;;5094457;28;20501;-65
2022/04/27 00:51:18;;;;;;;10.27;6.97;;;11.60;72.90;;;;;;5096153;28;20483;-66
2022/04/27 00:53:45;;;;;;;12.70;6.10;;;11.50;73.00;;;;;;5115118;28;20447;-66
2022/04/27 00:56:13;;;;;;;7.73;7.00;;;11.50;73.00;;;;;;5115095;28;20446;-66
2022/04/27 00:58:40;;;;;;;7.23;6.53;;;11.50;73.10;;;;;;5114799;28;20447;-66
2022/04/27 01:01:06;;;;;;;7.03;6.30;;;11.50;73.30;;;;;;5114788;28;20462;-66
2022/04/27 01:03:36;;;;;;;7.80;6.27;;;11.50;73.40;;;;;;5114608;28;20445;-66
2022/04/27 01:06:05;;;;;;;8.23;7.43;;;11.40;73.40;;;;;;5114667;28;20889;-66
2022/04/27 01:08:32;;;;;;;6.87;6.37;;;11.40;73.50;;;;;;5114425;28;20504;-66
2022/04/27 01:11:00;;;;;;;7.73;7.00;;;11.40;74.00;;;;;;5114289;28;20482;-66
2022/04/27 01:13:28;;;;;;;9.20;6.97;;;11.40;74.30;;;;;;5114119;28;20985;-65
2022/04/27 01:15:55;;;;;;;8.23;7.43;;;11.30;74.40;;;;;;5114693;28;20450;-66
2022/04/27 01:18:22;;;;;;;8.03;6.97;;;11.30;74.60;;;;;;5114270;28;20447;-66
2022/04/27 01:20:50;;;;;;;11.20;7.10;;;11.30;74.80;;;;;;5114103;28;20446;-66
2022/04/27 01:23:17;;;;;;;8.03;7.33;;;11.30;75.00;;;;;;5114178;28;20506;-66
2022/04/27 01:25:49;;;;;;;7.50;6.80;;;11.30;75.00;;;;;;5114235;27;20446;-66
2022/04/27 01:28:17;;;;;;;8.20;6.97;;;11.30;75.20;;;;;;5114114;28;20914;-65
2022/04/27 01:30:44;;;;;;;7.23;6.63;;;11.30;75.60;;;;;;5113966;28;20486;-66
2022/04/27 01:33:12;;;;;;;13.67;6.87;;;11.30;75.80;;;;;;5114105;28;20447;-66
2022/04/27 01:35:40;;;;;;;7.73;7.00;;;11.30;75.90;;;;;;5113731;28;20459;-67
2022/04/27 01:38:08;;;;;;;9.27;7.00;;;11.30;76.10;;;;;;5114006;28;20447;-66
2022/04/27 01:40:35;;;;;;;8.07;7.27;;;11.30;76.10;;;;;;5113962;28;20438;-66
2022/04/27 01:43:02;;;;;;;8.03;7.23;;;11.20;76.30;;;;;;5113859;28;20461;-66
2022/04/27 01:45:29;;;;;;;9.20;7.63;;;11.20;76.60;;;;;;5114022;28;20431;-66
2022/04/27 01:47:57;;;;;;;8.43;7.63;;;11.20;76.70;;;;;;5114097;28;20455;-66
2022/04/27 01:50:24;;;;;;;7.70;7.00;;;11.10;76.80;;;;;;5113399;28;20934;-66
2022/04/27 01:55:37;;;;;;;9.07;7.50;;;11.10;77.30;;;;;;5113874;28;20402;-65
2022/04/27 01:58:04;;;;;;;9.57;7.63;;;11.10;77.60;;;;;;5113429;28;20446;-66
2022/04/27 02:00:30;;;;;;;8.63;7.60;;;11.10;77.60;;;;;;5113877;28;20443;-66
2022/04/27 02:02:57;;;;;;;8.87;7.43;;;11.00;77.60;;;;;;5113537;28;20953;-66
2022/04/27 02:05:24;;;;;;;9.17;8.10;;;11.00;77.90;;;;;;5113795;28;20442;-65
2022/04/27 02:07:51;;;;;;;8.30;7.50;;;11.00;77.90;;;;;;5113559;28;20463;-66
2022/04/27 02:10:18;;;;;;;11.50;8.13;;;11.00;77.90;;;;;;5113647;28;20453;-66
2022/04/27 02:12:46;;;;;;;8.03;7.10;;;11.00;78.10;;;;;;5113306;28;21016;-65
2022/04/27 02:15:13;;;;;;;8.17;7.23;;;10.90;78.00;;;;;;5113807;28;20434;-65
2022/04/27 02:17:40;;;;;;;9.07;7.97;;;10.90;78.10;;;;;;5113339;28;20972;-65
2022/04/27 02:20:08;;;;;;;9.70;8.27;;;10.90;78.10;;;;;;5113900;28;20497;-65
2022/04/27 02:22:35;;;;;;;13.90;7.87;;;10.80;78.10;;;;;;5113296;28;20980;-65
2022/04/27 02:25:02;;;;;;;8.03;7.23;;;10.80;78.10;;;;;;5113474;28;20455;-66
2022/04/27 02:27:29;;;;;;;8.97;8.10;;;10.80;78.30;;;;;;5113492;28;20476;-65
2022/04/27 02:29:57;;;;;;;8.73;8.03;;;10.80;78.30;;;;;;5114067;28;20450;-66
2022/04/27 02:32:24;;;;;;;13.57;7.93;;;10.80;78.20;;;;;;5113230;28;20482;-67
2022/04/27 02:34:52;;;;;;;9.13;8.03;;;10.70;78.20;;;;;;5113599;28;20488;-65
2022/04/27 02:37:19;;;;;;;8.60;7.77;;;10.70;78.20;;;;;;5113561;28;20447;-66
2022/04/27 02:39:46;;;;;;;9.93;8.93;;;10.60;78.20;;;;;;5113307;28;20787;-66
2022/04/27 02:42:12;;;;;;;9.77;8.93;;;10.60;78.50;;;;;;5113578;28;20466;-65
2022/04/27 02:44:39;;;;;;;10.07;8.83;;;10.60;78.90;;;;;;5112854;28;20952;-65
2022/04/27 02:47:07;;;;;;;9.80;8.90;;;10.60;79.00;;;;;;5112978;28;20834;-66
2022/04/27 02:52:18;;;;;;;13.17;8.70;;;10.50;79.30;;;;;;5112937;28;20481;-66
2022/04/27 02:54:45;;;;;;;10.90;9.57;;;10.40;79.50;;;;;;5113444;28;20442;-65
2022/04/27 02:57:12;;;;;;;10.30;8.40;;;10.40;80.50;;;;;;5113726;28;20453;-65
2022/04/27 02:59:39;;;;;;;9.33;8.53;;;10.40;79.90;;;;;;5113164;28;20473;-67
2022/04/27 03:02:07;;;;;;;11.33;10.10;;;10.40;79.90;;;;;;5113245;28;20454;-66
2022/04/27 03:04:33;;;;;;;9.97;9.07;;;10.30;80.00;;;;;;5113148;28;20454;-66
2022/04/27 03:07:00;;;;;;;11.90;9.23;;;10.30;79.80;;;;;;5112825;28;20795;-66
2022/04/27 03:09:27;;;;;;;10.40;9.30;;;10.30;79.80;;;;;;5116003;28;20458;-66
2022/04/27 03:11:54;;;;;;;9.80;8.80;;;10.20;79.80;;;;;;5116720;28;20510;-66
2022/04/27 03:14:21;;;;;;;10.53;9.40;;;10.20;80.30;;;;;;5116667;28;20445;-66
2022/04/27 03:16:48;;;;;;;13.13;9.80;;;10.20;80.50;;;;;;5116431;28;20852;-66
2022/04/27 03:19:16;;;;;;;10.37;9.10;;;10.20;80.60;;;;;;5116676;28;20435;-66
2022/04/27 03:21:43;;;;;;;14.50;9.90;;;10.20;80.70;;;;;;5116741;28;20466;-66
2022/04/27 03:24:10;;;;;;;11.60;9.20;;;10.10;80.90;;;;;;5116499;28;20451;-66
2022/04/27 03:26:36;;;;;;;10.73;9.10;;;10.10;81.00;;;;;;5116539;28;20447;-66
2022/04/27 03:29:04;;;;;;;11.23;10.00;;;10.10;81.20;;;;;;5116409;28;20442;-66
2022/04/27 03:31:31;;;;;;;11.20;9.60;;;10.10;81.30;;;;;;5116071;28;20518;-66
2022/04/27 03:33:57;;;;;;;11.07;10.00;;;10.00;81.20;;;;;;5116346;28;20430;-66
2022/04/27 03:36:26;;;;;;;11.47;10.00;;;10.00;81.30;;;;;;5116057;28;20443;-65
2022/04/27 03:38:53;;;;;;;10.80;9.80;;;10.00;81.40;;;;;;5116505;28;20446;-66
2022/04/27 03:41:22;;;;;;;10.50;9.50;;;10.00;81.70;;;;;;5116136;28;20455;-65
2022/04/27 03:43:49;;;;;;;9.70;8.70;;;10.00;81.90;;;;;;5116196;28;20446;-65
2022/04/27 03:46:16;;;;;;;11.50;9.63;;;9.90;83.10;;;;;;5116162;28;20443;-66
2022/04/27 03:48:43;;;;;;;10.03;9.13;;;9.90;83.10;;;;;;5115963;28;20454;-66
2022/04/27 03:51:10;;;;;;;11.53;10.33;;;10.00;81.90;;;;;;5113383;28;20988;-66
2022/04/27 03:53:38;;;;;;;12.30;9.57;;;9.90;83.00;;;;;;5095648;28;20448;-66
2022/04/27 03:56:05;;;;;;;9.80;8.80;;;9.90;83.10;;;;;;5095515;28;20455;-65
2022/04/27 03:58:32;;;;;;;14.30;11.30;;;9.90;83.00;;;;;;5095521;28;20456;-65
2022/04/27 04:00:59;;;;;;;10.63;9.47;;;9.90;83.10;;;;;;5095435;28;20470;-65
2022/04/27 04:03:26;;;;;;;14.40;10.50;;;9.90;83.20;;;;;;5095457;28;20443;-65
2022/04/27 04:05:53;;;;;;;12.30;9.93;;;9.90;83.10;;;;;;5095275;28;20451;-66
2022/04/27 04:08:20;;;;;;;12.73;11.33;;;9.90;83.20;;;;;;5095239;28;20448;-65
2022/04/27 04:10:48;;;;;;;11.53;10.20;;;9.90;83.00;;;;;;5094904;28;20970;-65
2022/04/27 04:13:14;;;;;;;12.03;10.40;;;9.90;83.10;;;;;;5095321;28;20459;-65
2022/04/27 04:15:41;;;;;;;11.90;10.73;;;9.90;83.00;;;;;;5095199;28;20448;-65
2022/04/27 04:18:08;;;;;;;11.93;10.73;;;9.90;83.20;;;;;;5095121;28;20812;-65
2022/04/27 04:20:35;;;;;;;10.90;9.80;;;9.80;83.30;;;;;;5095020;28;20451;-65
2022/04/27 04:23:01;;;;;;;12.47;11.27;;;9.80;83.40;;;;;;5095014;28;20444;-65
2022/04/27 04:28:32;;;;;;;11.50;9.47;;;9.80;83.10;;;;;;5094694;28;20917;-65
2022/04/27 04:31:00;;;;;;;16.33;11.60;;;9.80;83.30;;;;;;5094859;28;20464;-65
2022/04/27 04:33:27;;;;;;;11.40;10.40;;;9.70;83.20;;;;;;5094858;28;20439;-65
2022/04/27 04:35:54;;;;;;;13.17;11.60;;;9.70;83.30;;;;;;5095344;28;20452;-65
2022/04/27 04:38:21;;;;;;;14.70;11.17;;;9.70;83.50;;;;;;5094356;28;20487;-65
2022/04/27 04:40:48;;;;;;;12.60;11.50;;;9.70;83.60;;;;;;5094654;28;20485;-64
2022/04/27 04:43:16;;;;;;;15.30;11.27;;;9.70;83.70;;;;;;5094441;28;20989;-64
2022/04/27 04:45:43;;;;;;;16.80;11.07;;;9.70;83.90;;;;;;5094542;28;20451;-65
2022/04/27 04:48:10;;;;;;;12.80;11.40;;;9.70;83.90;;;;;;5094402;28;20451;-64
2022/04/27 04:50:37;;;;;;;12.93;10.40;;;9.70;84.10;;;;;;5094523;28;20454;-64
2022/04/27 04:53:04;;;;;;;13.03;10.77;;;9.70;84.10;;;;;;5094496;28;20475;-66
2022/04/27 04:55:31;;;;;;;15.87;11.00;;;9.70;84.00;;;;;;5094053;28;20810;-64
2022/04/27 04:57:58;;;;;;;11.50;10.33;;;9.70;84.20;;;;;;5094469;28;20446;-65
2022/04/27 05:00:26;;;;;;;12.33;10.00;;;9.70;84.40;;;;;;5094337;28;20447;-65
2022/04/27 05:02:54;;;;;;;13.57;11.07;;;9.70;84.80;;;;;;5094268;28;20464;-65
2022/04/27 05:05:21;;;;;;;11.53;10.33;;;9.70;85.00;;;;;;5093882;28;20943;-64
2022/04/27 05:07:48;;;;;;;11.30;10.20;;;9.70;85.40;;;;;;5094170;28;20527;-65
2022/04/27 05:10:14;;;;;;;12.80;10.70;;;9.70;85.80;;;;;;5094015;28;20818;-65
2022/04/27 05:12:41;;;;;;;12.00;10.90;;;9.70;85.90;;;;;;5093914;28;20490;-66
2022/04/27 05:15:09;;;;;;;17.10;10.53;;;9.70;86.10;;;;;;5093898;28;20444;-65
2022/04/27 05:17:38;;;;;;;15.50;11.67;;;9.70;86.50;;;;;;5093896;28;20444;-65
2022/04/27 05:20:05;;;;;;;13.87;11.80;;;9.70;86.80;;;;;;5093575;28;20821;-66
2022/04/27 05:22:38;;;;;;;13.97;11.63;;;9.70;87.10;;;;;;5093777;28;20554;-65
2022/04/27 05:25:05;;;;;;;13.57;12.00;;;9.80;87.30;;;;;;5093928;28;20448;-65
2022/04/27 05:27:32;;;;;;;14.83;12.40;;;9.80;87.70;;;;;;5093849;28;20451;-65
2022/04/27 05:32:45;;;;;;;14.77;11.87;;;9.80;88.30;;;;;;5093171;28;20841;-65
2022/04/27 05:35:12;;;;;;;13.03;11.67;;;9.90;88.60;;;;;;5093832;28;20432;-65
2022/04/27 05:37:39;;;;;;;12.50;11.30;;;9.90;88.80;;;;;;5093488;28;20868;-65
2022/04/27 05:40:07;;;;;;;14.13;12.43;;;9.90;89.20;;;;;;5093394;28;20957;-65
2022/04/27 05:42:35;;;;;;;18.07;12.63;;;9.90;89.50;;;;;;5093560;28;20534;-66
2022/04/27 05:45:01;;;;;;;13.20;10.80;;;9.90;89.70;;;;;;5093813;28;20530;-66
2022/04/27 05:47:28;;;;;;;11.67;10.57;;;10.00;88.80;;;;;;5093586;28;20455;-66
2022/04/27 05:49:56;;;;;;;14.93;12.57;;;10.00;88.70;;;;;;5093601;28;20456;-67
2022/04/27 05:52:23;;;;;;;13.97;12.40;;;10.10;89.00;;;;;;5093533;28;20490;-65
2022/04/27 05:54:51;;;;;;;16.40;11.40;;;10.10;89.20;;;;;;5093614;28;20432;-65
2022/04/27 05:57:18;;;;;;;16.73;11.83;;;10.20;89.40;;;;;;5093614;28;20529;-65
2022/04/27 05:59:45;;;;;;;15.10;11.93;;;10.20;89.60;;;;;;5093741;28;20443;-66
2022/04/27 06:02:11;;;;;;;13.90;11.80;;;10.30;89.90;;;;;;5093419;28;20815;-65
2022/04/27 06:04:38;;;;;;;15.10;13.50;;;10.40;89.90;;;;;;5093409;28;20432;-65
2022/04/27 06:07:08;;;;;;;14.57;13.10;;;10.40;90.00;;;;;;5093252;28;20915;-65
2022/04/27 06:09:35;;;;;;;15.33;13.83;;;10.50;90.10;;;;;;5093593;28;20447;-65
2022/04/27 06:12:01;;;;;;;14.97;11.90;;;10.60;90.20;;;;;;5093319;28;20487;-65
2022/04/27 06:14:28;;;;;;;15.37;11.93;;;10.60;90.20;;;;;;5093793;28;20455;-65
2022/04/27 06:16:55;;;;;;;17.87;11.80;;;10.70;90.00;;;;;;5093546;28;20451;-65
2022/04/27 06:19:21;;;;;;;13.83;11.50;;;10.70;89.70;;;;;;5093370;28;20501;-65
2022/04/27 06:21:48;;;;;;;15.57;13.47;;;10.80;89.60;;;;;;5093050;28;20997;-66
2022/04/27 06:24:16;;;;;;;15.57;13.00;;;10.90;89.80;;;;;;5093709;28;20448;-65
2022/04/27 06:26:43;;;;;;;13.50;12.20;;;11.00;90.30;;;;;;5093518;28;20915;-65
2022/04/27 06:29:10;;;;;;;13.27;11.90;;;11.10;89.90;;;;;;5093342;28;20444;-65
2022/04/27 06:31:37;;;;;;;15.93;13.10;;;11.20;89.80;;;;;;5093258;28;20503;-66
2022/04/27 06:34:04;;;;;;;12.97;11.67;;;11.20;89.60;;;;;;5093218;28;20446;-66
2022/04/27 06:36:31;;;;;;;12.37;11.17;;;11.30;89.50;;;;;;5093275;28;20459;-65
2022/04/27 06:38:57;;;;;;;13.43;12.07;;;11.40;89.40;;;;;;5093200;28;20450;-66
2022/04/27 06:41:25;;;;;;;12.50;11.20;;;11.50;89.30;;;;;;5093058;28;20467;-66
2022/04/27 06:43:52;;;;;;;14.70;10.60;;;11.60;89.00;;;;;;5094961;28;20484;-65
2022/04/27 06:46:19;;;;;;;14.83;12.07;;;11.70;88.80;;;;;;5096610;28;20942;-66
2022/04/27 06:48:46;;;;;;;13.17;11.90;;;11.80;88.90;;;;;;5097718;28;20447;-66
2022/04/27 06:51:13;;;;;;;14.60;11.73;;;12.00;88.40;;;;;;5098423;28;20967;-66
2022/04/27 06:53:39;;;;;;;14.03;11.40;;;12.10;89.20;;;;;;5117201;28;20474;-65
2022/04/27 06:56:06;;;;;;;13.10;11.80;;;12.20;87.30;;;;;;5117190;28;20454;-66
2022/04/27 06:58:35;;;;;;;11.90;10.70;;;12.30;86.90;;;;;;5117123;28;20442;-65
2022/04/27 07:01:03;;;;;;;14.23;12.20;;;12.40;86.60;;;;;;5116882;28;20478;-66
2022/04/27 07:03:31;;;;;;;17.83;11.60;;;12.50;86.00;;;;;;5116992;28;20446;-66
2022/04/27 07:05:58;;;;;;;11.07;9.77;;;12.70;85.40;;;;;;5116541;28;20447;-66
2022/04/27 07:08:25;;;;;;;12.50;10.57;;;12.80;85.00;;;;;;5116895;28;20442;-66
2022/04/27 07:10:52;;;;;;;11.37;10.00;;;12.90;84.20;;;;;;5116761;28;20462;-66
2022/04/27 07:13:19;;;;;;;15.70;9.57;;;13.10;84.10;;;;;;5117391;28;20462;-66
2022/04/27 07:15:47;;;;;;;13.63;11.57;;;13.20;83.10;;;;;;5116714;28;20442;-65
2022/04/27 07:18:14;;;;;;;12.30;10.97;;;13.40;81.60;;;;;;5116777;28;20814;-66
2022/04/27 07:20:41;;;;;;;11.53;10.43;;;13.50;81.10;;;;;;5116698;28;20447;-66
2022/04/27 07:23:07;;;;;;;13.23;11.67;;;13.60;80.70;;;;;;5116629;28;20442;-66
2022/04/27 07:25:34;;;;;;;12.30;10.37;;;13.80;80.50;;;;;;5116563;28;20449;-66
2022/04/27 07:28:01;;;;;;;11.17;10.00;;;13.90;79.50;;;;;;5116571;28;20442;-66
2022/04/27 07:30:28;;;;;;;10.60;9.50;;;14.10;78.40;;;;;;5116563;28;20446;-66
2022/04/27 07:32:56;;;;;;;11.10;9.30;;;14.20;76.50;;;;;;5116146;28;20482;-66
2022/04/27 07:35:22;;;;;;;12.00;9.67;;;14.40;75.80;;;;;;5116379;28;20454;-66
2022/04/27 07:37:49;;;;;;;10.03;8.10;;;14.60;75.40;;;;;;5116306;28;20447;-66
2022/04/27 07:40:16;;;;;;;13.30;9.03;;;14.80;74.90;;;;;;5116388;28;20443;-66
2022/04/27 07:42:43;;;;;;;12.77;9.57;;;14.90;73.90;;;;;;5116025;28;20462;-66
2022/04/27 07:45:10;;;;;;;11.37;9.00;;;15.10;72.70;;;;;;5116281;28;20431;-66
2022/04/27 07:47:41;;;;;;;11.23;8.83;;;15.30;71.50;;;;;;5116459;28;20454;-66
2022/04/27 07:50:11;;;;;;;11.10;8.07;;;15.50;70.60;;;;;;5116212;28;20450;-66
2022/04/27 07:52:38;;;;;;;8.33;7.30;;;15.70;68.90;;;;;;5115651;28;20992;-66
2022/04/27 07:55:06;;;;;;;13.10;8.63;;;15.80;67.90;;;;;;5115661;28;20446;-66
2022/04/27 07:57:33;;;;;;;11.13;9.50;;;16.00;67.50;;;;;;5116118;28;20435;-66
2022/04/27 08:00:01;;;;;;;8.93;8.03;;;16.20;66.30;;;;;;5115580;28;20980;-67
2022/04/27 08:02:28;;;;;;;9.30;8.03;;;16.40;65.70;;;;;;5116002;28;20550;-66
2022/04/27 08:04:54;;;;;;;9.40;7.93;;;16.60;65.80;;;;;;5115972;28;20443;-66
2022/04/27 08:07:23;;;;;;;10.77;8.07;;;16.70;66.00;;;;;;5115787;28;20451;-66
2022/04/27 08:09:49;;;;;;;10.27;8.07;;;16.90;63.80;;;;;;5115765;28;20447;-66
2022/04/27 08:12:16;;;;;;;6.93;6.27;;;17.00;60.40;;;;;;5116176;28;20470;-66
2022/04/27 08:14:43;;;;;;;10.33;6.10;;;17.10;60.60;;;;;;5115879;28;20450;-66
2022/04/27 08:17:10;;;;;;;7.80;6.53;;;17.30;60.10;;;;;;5115279;28;20812;-66
2022/04/27 08:19:37;;;;;;;6.30;5.70;;;17.50;59.20;;;;;;5115360;28;20456;-66
2022/04/27 08:22:06;;;;;;;5.63;5.13;;;17.70;58.20;;;;;;5115547;28;20470;-66
2022/04/27 08:24:38;;;;;;;9.80;5.87;;;17.90;57.60;;;;;;5115459;28;20547;-66
2022/04/27 08:27:05;;;;;;;6.27;5.57;;;18.10;56.80;;;;;;5115124;28;20906;-66
2022/04/27 08:29:32;;;;;;;8.40;6.20;;;18.30;56.20;;;;;;5115294;28;20446;-66
2022/04/27 08:31:58;;;;;;;5.77;5.10;;;18.50;55.00;;;;;;5115258;28;20467;-66
2022/04/27 08:34:27;;;;;;;8.40;5.53;;;18.70;53.60;;;;;;5115377;28;20501;-66
2022/04/27 08:36:54;;;;;;;5.27;4.87;;;18.80;52.80;;;;;;5115297;28;20464;-66
2022/04/27 08:39:21;;;;;;;7.33;5.33;;;19.00;52.90;;;;;;5115192;28;20446;-66
2022/04/27 08:41:49;;;;;;;9.67;5.17;;;19.20;52.90;;;;;;5114784;28;20978;-66
2022/04/27 08:44:15;;;;;;;6.53;4.80;;;19.30;51.60;;;;;;5115519;28;20470;-66
2022/04/27 08:46:43;;;;;;;4.83;4.43;;;19.50;50.80;;;;;;5115157;28;20435;-67
2022/04/27 08:49:10;;;;;;;8.00;4.30;;;19.70;51.10;;;;;;5114628;28;20936;-66
2022/04/27 08:51:38;;;;;;;6.60;6.00;;;19.90;50.80;;;;;;5114636;28;20467;-67
2022/04/27 08:54:06;;;;;;;6.93;5.07;;;20.10;50.50;;;;;;5114897;28;20556;-67
2022/04/27 08:56:34;;;;;;;6.03;4.60;;;20.30;50.10;;;;;;5114657;28;20809;-67
2022/04/27 08:59:03;;;;;;;5.37;4.83;;;20.40;48.30;;;;;;5114890;28;20439;-67
2022/04/27 09:01:30;;;;;;;4.80;4.40;;;20.60;47.60;;;;;;5114769;28;20466;-67
2022/04/27 09:04:14;;;;;;;6.10;5.50;;;20.80;47.80;;;;;;5114769;28;20790;-67
2022/04/27 09:06:41;;;;;;;5.47;3.97;;;20.90;47.70;;;;;;5113872;28;20412;-66
2022/04/27 09:09:13;;;;;;;5.03;4.53;;;21.10;47.30;;;;;;5114669;28;20442;-67
2022/04/27 09:11:40;;;;;;;9.03;4.90;;;21.30;45.90;;;;;;5114495;28;20462;-66
2022/04/27 09:14:08;;;;;;;4.33;3.90;;;21.40;45.30;;;;;;5114732;28;20528;-66
2022/04/27 09:22:04;;;;;;;6.87;5.17;;;21.80;43.60;;;;;;5113833;28;20445;-66
2022/04/27 09:24:47;;;;;;;6.17;4.10;;;22.00;42.90;;;;;;5114158;28;20443;-66
2022/04/27 09:27:17;;;;;;;5.93;5.40;;;22.10;43.70;;;;;;5114006;28;20461;-66
2022/04/27 09:29:58;;;;;;;5.67;5.07;;;22.30;42.80;;;;;;5114191;28;20816;-66
2022/04/27 09:32:25;;;;;;;6.43;5.70;;;22.40;41.00;;;;;;5113924;28;20462;-66
2022/04/27 09:34:52;;;;;;;6.63;5.90;;;22.30;40.80;;;;;;5113700;28;21032;-66
2022/04/27 09:37:20;;;;;;;7.37;6.50;;;22.30;41.70;;;;;;5113941;28;20469;-66
2022/04/27 09:40:04;;;;;;;6.57;4.80;;;22.30;41.20;;;;;;5114132;28;20447;-66
2022/04/27 09:42:31;;;;;;;7.20;6.50;;;22.30;40.80;;;;;;5114301;28;20494;-66
2022/04/27 09:45:15;;;;;;;6.80;6.10;;;22.30;39.90;;;;;;5113712;28;20458;-66
2022/04/27 09:47:46;;;;;;;7.13;6.43;;;22.40;40.80;;;;;;5114167;28;20459;-66
2022/04/27 09:50:13;;;;;;;7.23;6.53;;;22.40;39.20;;;;;;5113974;28;20548;-67
2022/04/27 09:52:41;;;;;;;6.40;5.63;;;22.50;40.80;;;;;;5098908;28;20856;-67
2022/04/27 09:55:08;;;;;;;7.67;6.97;;;22.70;42.10;;;;;;5094067;28;20451;-66
2022/04/27 09:57:39;;;;;;;6.77;6.17;;;23.00;42.20;;;;;;5093729;28;20448;-66
2022/04/27 10:00:11;;;;;;;11.97;6.67;;;23.40;41.90;;;;;;5093760;28;20471;-66
2022/04/27 10:02:43;;;;;;;7.77;5.93;;;23.80;40.70;;;;;;5093544;28;20471;-66
2022/04/27 10:05:10;;;;;;;9.57;6.47;;;24.10;39.00;;;;;;5093602;28;20497;-66
2022/04/27 10:07:37;;;;;;;9.90;7.17;;;24.50;38.00;;;;;;5093413;28;20458;-67
2022/04/27 10:10:04;;;;;;;10.80;8.33;;;24.90;37.30;;;;;;5093321;28;20455;-67
2022/04/27 10:12:35;;;;;;;7.50;5.20;;;25.00;34.50;;;;;;5093539;28;20490;-67
2022/04/27 10:15:02;;;;;;;7.83;7.10;;;25.00;33.90;;;;;;5093429;28;20830;-66
2022/04/27 10:17:30;;;;;;;11.90;7.77;;;25.00;34.70;;;;;;5094864;28;20538;-67
2022/04/27 10:19:57;;;;;;;7.37;6.60;;;25.10;36.30;;;;;;5097253;28;20847;-67
2022/04/27 10:22:28;;;;;;;8.97;8.07;;;25.40;35.60;;;;;;5096978;28;20845;-67
2022/04/27 10:24:56;;;;;;;12.80;7.87;;;25.70;33.00;;;;;;5097337;28;20514;-66
2022/04/27 10:27:25;;;;;;;7.13;6.53;;;25.90;30.50;;;;;;5097401;28;20463;-68
2022/04/27 10:29:53;;;;;;;6.30;5.80;;;26.10;30.60;;;;;;5097340;28;20451;-67
2022/04/27 10:32:36;;;;;;;8.00;5.87;;;26.40;31.70;;;;;;5097144;28;20467;-67
2022/04/27 10:35:25;;;;;;;8.13;7.33;;;26.90;32.20;;;;;;5097185;28;20467;-67
2022/04/27 10:37:54;;;;;;;7.00;6.40;;;27.60;31.20;;;;;;5097354;28;20439;-67
2022/04/27 10:40:31;;;;;;;6.97;5.90;;;28.10;29.40;;;;;;5097227;28;20475;-67
2022/04/27 10:43:13;;;;;;;8.30;5.50;;;28.60;29.10;;;;;;5096946;28;20851;-67
2022/04/27 10:45:41;;;;;;;8.00;7.30;;;29.30;29.50;;;;;;5097083;28;20438;-67
2022/04/27 10:48:16;;;;;;;8.50;7.00;;;29.90;28.20;;;;;;5096889;28;20455;-67
2022/04/27 10:50:56;;;;;;;6.23;5.70;;;30.50;26.90;;;;;;5097025;28;20423;-66
2022/04/27 10:53:25;;;;;;;7.10;6.40;;;31.10;26.50;;;;;;5096536;28;20498;-66
2022/04/27 10:55:54;;;;;;;7.70;6.87;;;31.60;26.20;;;;;;5096785;28;20431;-65
2022/04/27 10:58:43;;;;;;;9.07;8.00;;;32.10;25.20;;;;;;5096775;28;20451;-70
2022/04/27 11:01:20;;;;;;;7.17;6.43;;;32.50;22.80;;;;;;5092109;28;20483;-65
2022/04/27 11:03:59;;;;;;;8.13;5.90;;;32.60;23.40;;;;;;5096485;28;20423;-65
2022/04/27 11:06:26;;;;;;;7.80;7.03;;;32.90;24.10;;;;;;5096738;28;20435;-65
2022/04/27 11:09:12;;;;;;;7.60;6.83;;;33.20;24.00;;;;;;5096459;28;20442;-66
2022/04/27 11:11:51;;;;;;;9.23;8.53;;;33.80;24.10;;;;;;5096516;28;20470;-66
2022/04/27 11:14:20;;;;;;;8.20;7.50;;;34.20;20.90;;;;;;5096117;28;20989;-65
2022/04/27 11:16:48;;;;;;;6.83;6.23;;;34.30;21.20;;;;;;5096462;28;20440;-66
2022/04/27 11:19:17;;;;;;;8.93;8.13;;;34.50;22.10;;;;;;5096418;28;20447;-66
2022/04/27 11:21:43;;;;;;;8.13;6.50;;;34.80;20.90;;;;;;5095874;28;20981;-66
2022/04/27 11:24:11;;;;;;;9.40;8.60;;;34.80;20.50;;;;;;5095802;28;20961;-65
2022/04/27 11:26:46;;;;;;;7.77;6.00;;;35.10;20.70;;;;;;5096255;28;20478;-66
2022/04/27 11:29:13;;;;;;;6.57;5.93;;;35.30;20.00;;;;;;5095315;28;20802;-66
2022/04/27 11:31:42;;;;;;;6.37;5.77;;;35.50;20.80;;;;;;5096203;28;20467;-66
2022/04/27 11:34:23;;;;;;;7.73;7.00;;;35.90;20.60;;;;;;5096001;28;20231;-66
2022/04/27 11:36:51;;;;;;;9.10;7.60;;;36.30;20.10;;;;;;5096133;28;20189;-66
2022/04/27 11:39:21;;;;;;;7.27;6.67;;;36.50;20.20;;;;;;5095945;28;20942;-66
2022/04/27 11:41:48;;;;;;;8.77;7.97;;;36.80;19.90;;;;;;5095827;28;20304;-66
2022/04/27 11:44:20;;;;;;;11.45;5.65;;;37.20;18.50;;;;;;5095540;28;20205;-66
2022/04/27 11:46:46;;;;;;;7.30;6.60;;;37.40;18.60;;;;;;5096097;28;20190;-66
2022/04/27 11:49:13;;;;;;;8.75;5.97;;;37.70;19.10;;;;;;5095788;28;20616;-67
2022/04/27 11:51:47;;;;;;;9.05;5.93;;;37.90;18.90;;;;;;5096021;28;20311;-66
2022/04/27 11:54:25;;;;;;;8.90;8.05;;;38.00;17.70;;;;;;5095845;28;20205;-66
2022/04/27 11:56:56;;;;;;;11.02;8.23;;;38.10;17.70;;;;;;5095435;28;20224;-66
2022/04/27 11:59:23;;;;;;;9.85;7.10;;;38.10;16.40;;;;;;5095638;28;20186;-67
2022/04/27 12:01:53;;;;;;;7.47;6.90;;;37.70;17.30;;;;;;5095602;28;20294;-66
2022/04/27 12:04:20;;;;;;;7.00;6.32;;;37.60;18.60;;;;;;5095729;28;20208;-66
2022/04/27 12:06:49;;;;;;;5.93;5.40;;;37.60;18.00;;;;;;5095316;28;20275;-66
2022/04/27 12:09:19;;;;;;;7.20;5.85;;;37.80;18.50;;;;;;5095507;28;20197;-66
2022/04/27 12:11:47;;;;;;;7.53;6.82;;;38.30;18.50;;;;;;5095212;28;20742;-66
2022/04/27 12:14:18;;;;;;;8.18;7.57;;;38.60;17.30;;;;;;5095037;28;20691;-66
2022/04/27 12:16:45;;;;;;;6.90;6.13;;;38.90;16.40;;;;;;5096058;28;20221;-67
2022/04/27 12:19:13;;;;;;;8.00;6.90;;;39.00;16.90;;;;;;5096140;28;20205;-66
2022/04/27 12:21:42;;;;;;;7.80;7.05;;;39.10;17.00;;;;;;5095760;28;20307;-67
2022/04/27 12:24:20;;;;;;;8.32;7.72;;;39.30;16.50;;;;;;5095660;28;20660;-66
2022/04/27 12:26:46;;;;;;;7.13;6.05;;;39.50;16.20;;;;;;5095444;28;20189;-67
2022/04/27 12:29:13;;;;;;;8.05;7.30;;;39.60;16.80;;;;;;5095686;28;20242;-66
2022/04/27 12:31:40;;;;;;;6.85;6.22;;;39.80;15.70;;;;;;5095178;28;20225;-67
2022/04/27 12:37:29;;;;;;;7.05;6.43;;;39.70;15.70;;;;;;5095184;28;20225;-66
2022/04/27 12:39:42;;;;;;;9.98;7.07;;;40.00;15.90;;;;;;5094892;28;20571;-66
2022/04/27 12:42:10;;;;;;;5.53;5.03;;;39.90;15.10;;;;;;5094664;28;20228;-66
2022/04/27 12:44:42;;;;;;;8.70;7.80;;;39.90;16.00;;;;;;5094547;28;20201;-66
2022/04/27 12:47:10;;;;;;;7.68;6.97;;;40.10;15.10;;;;;;5094796;28;20198;-67
2022/04/27 12:49:38;;;;;;;8.48;7.65;;;40.10;14.80;;;;;;5094832;28;20201;-66
2022/04/27 12:52:15;;;;;;;7.63;6.88;;;40.10;14.50;;;;;;5094533;28;20272;-67
2022/04/27 12:54:44;;;;;;;7.95;6.88;;;40.00;14.80;;;;;;5094697;28;20213;-66
2022/04/27 12:57:10;;;;;;;7.22;5.78;;;40.10;16.10;;;;;;5094295;28;20223;-67
2022/04/27 12:59:55;;;;;;;6.65;6.05;;;40.30;16.10;;;;;;5094515;28;20186;-67
2022/04/27 13:02:22;;;;;;;6.45;5.95;;;40.80;15.90;;;;;;5094412;28;20232;-67
2022/04/27 13:04:49;;;;;;;6.75;6.15;;;41.10;15.50;;;;;;5094396;28;20284;-67
2022/04/27 13:07:16;;;;;;;6.82;6.13;;;41.60;15.30;;;;;;5094421;28;20186;-66